< < Back
Terminal Aerodrome Forecast


Current Version              Previous Versions:   1  2  3  4  5  6  7  8  9  

Terminal Aerodrome Forecast

116
FTUS44 KHUN 232320
TAFHSV
TAF
KHSV 232320Z 2400/2424 VRB04KT P6SM SCT040 SCT120
     FM241500 17005KT P6SM SCT040 SCT250=

Latest METAR

772
SAUS80 KWBC 240100
MTRHSV
METAR KHSV 240053Z 33003KT 10SM FEW150 BKN250 28/21 A3018 RMK AO2 SLP213
T02780211


USA.gov is the U.S. government's official web portal to all federal, state and local government web resources and services.